createdAt,value
2023-05-21T00:01:00.995Z,100213.38
2023-05-21T00:04:03.951Z,100218.41
2023-05-21T00:07:09.957Z,100217.19
2023-05-21T00:10:12.886Z,100215.97
2023-05-21T00:13:15.912Z,100219.19
2023-05-21T00:16:18.817Z,100217.59
2023-05-21T00:19:21.678Z,100223.22
2023-05-21T00:22:24.518Z,100214.97
2023-05-21T00:25:27.229Z,100220.41
2023-05-21T00:28:29.930Z,100212.56
2023-05-21T00:31:32.737Z,100217.56
2023-05-21T00:34:36.492Z,100216.16
2023-05-21T00:37:39.268Z,100208.94
2023-05-21T00:40:42.007Z,100196.88
2023-05-21T00:43:45.160Z,100207.06
2023-05-21T00:46:49.060Z,100202.66
2023-05-21T00:49:53.453Z,100202.25
2023-05-21T00:52:57.067Z,100201.28
2023-05-21T00:55:59.846Z,100197.88
2023-05-21T00:59:05.692Z,100202.47
2023-05-21T01:02:09.710Z,100193.22
2023-05-21T01:05:13.177Z,100197.63
2023-05-21T01:08:16.172Z,100197.19
2023-05-21T01:11:19.289Z,100199.22
2023-05-21T01:14:24.407Z,100203.03
2023-05-21T01:17:29.870Z,100199.00
2023-05-21T01:20:32.694Z,100193.75
2023-05-21T01:23:36.007Z,100197.97
2023-05-21T01:26:39.911Z,100194.97
2023-05-21T01:29:43.455Z,100201.56
2023-05-21T01:33:04.164Z,100199.94
2023-05-21T01:36:16.077Z,100190.09
2023-05-21T01:39:27.966Z,100193.75
2023-05-21T01:42:32.429Z,100197.13
2023-05-21T01:45:39.226Z,100188.53
2023-05-21T01:48:43.836Z,100192.50
2023-05-21T01:51:47.334Z,100191.31
2023-05-21T01:54:51.501Z,100199.94
2023-05-21T01:57:56.012Z,100196.91
2023-05-21T02:00:58.928Z,100189.06
2023-05-21T02:04:02.013Z,100195.91
2023-05-21T02:07:05.020Z,100184.44
2023-05-21T02:10:08.325Z,100186.47
2023-05-21T02:13:11.109Z,100191.88
2023-05-21T02:16:16.097Z,100194.91
2023-05-21T02:19:19.522Z,100184.00
2023-05-21T02:22:22.331Z,100191.66
2023-05-21T02:25:25.211Z,100189.81
2023-05-21T02:28:29.900Z,100191.22
2023-05-21T02:31:32.940Z,100193.66
2023-05-21T02:34:37.475Z,100195.28
2023-05-21T02:37:40.968Z,100196.28
2023-05-21T02:40:43.694Z,100190.41
2023-05-21T02:43:46.532Z,100188.22
2023-05-21T02:46:49.292Z,100192.69
2023-05-21T02:49:54.190Z,100194.47
2023-05-21T02:52:57.005Z,100191.69
2023-05-21T02:55:59.819Z,100195.88
2023-05-21T02:59:02.949Z,100195.06
2023-05-21T03:02:06.199Z,100190.06
2023-05-21T03:05:09.141Z,100186.66
2023-05-21T03:08:12.057Z,100189.22
2023-05-21T03:11:15.896Z,100181.19
2023-05-21T03:14:18.766Z,100185.53
2023-05-21T03:17:22.394Z,100189.22
2023-05-21T03:20:25.212Z,100189.47
2023-05-21T03:23:28.084Z,100189.88
2023-05-21T03:26:31.234Z,100191.91
2023-05-21T03:29:36.297Z,100188.88
2023-05-21T03:32:41.467Z,100187.28
2023-05-21T03:35:44.834Z,100192.13
2023-05-21T03:38:47.620Z,100186.50
2023-05-21T03:41:50.396Z,100202.59
2023-05-21T03:45:00.520Z,100191.16
2023-05-21T03:48:22.135Z,100194.38
2023-05-21T03:51:25.124Z,100196.81
2023-05-21T03:54:28.388Z,100199.19
2023-05-21T03:57:35.672Z,100203.41
2023-05-21T04:00:38.453Z,100201.41
2023-05-21T04:03:41.578Z,100199.25
2023-05-21T04:06:44.937Z,100205.72
2023-05-21T04:09:48.777Z,100204.50
2023-05-21T04:12:52.706Z,100197.50
2023-05-21T04:15:56.137Z,100207.94
2023-05-21T04:18:59.180Z,100208.53
2023-05-21T04:22:03.260Z,100209.53
2023-05-21T04:25:06.661Z,100212.78
2023-05-21T04:28:11.926Z,100217.00
2023-05-21T04:31:15.336Z,100211.41
2023-05-21T04:34:18.228Z,100208.00
2023-05-21T04:37:21.002Z,100214.25
2023-05-21T04:40:24.783Z,100207.81
2023-05-21T04:43:28.310Z,100204.38
2023-05-21T04:46:35.077Z,100211.41
2023-05-21T04:49:38.137Z,100219.06
2023-05-21T04:52:42.650Z,100215.63
2023-05-21T04:55:46.837Z,100213.03
2023-05-21T04:58:49.932Z,100221.66
2023-05-21T05:01:52.910Z,100220.22
2023-05-21T05:04:57.819Z,100222.75
2023-05-21T05:08:01.304Z,100220.03
2023-05-21T05:11:04.380Z,100227.19
2023-05-21T05:14:07.471Z,100223.91
2023-05-21T05:17:14.786Z,100227.91
2023-05-21T05:20:19.133Z,100229.31
2023-05-21T05:23:21.870Z,100235.44
2023-05-21T05:26:24.697Z,100228.88
2023-05-21T05:29:27.562Z,100232.66
2023-05-21T05:32:30.363Z,100230.31
2023-05-21T05:35:33.155Z,100233.31
2023-05-21T05:38:36.414Z,100235.22
2023-05-21T05:41:39.490Z,100233.00
2023-05-21T05:44:42.334Z,100236.94
2023-05-21T05:47:45.693Z,100226.69
2023-05-21T05:50:48.685Z,100243.34
2023-05-21T05:53:51.624Z,100240.06
2023-05-21T05:56:54.681Z,100244.38
2023-05-21T05:59:57.981Z,100238.31
2023-05-21T06:03:01.162Z,100240.94
2023-05-21T06:06:04.153Z,100243.41
2023-05-21T06:09:07.812Z,100244.63
2023-05-21T06:12:14.694Z,100255.03
2023-05-21T06:15:19.547Z,100257.06
2023-05-21T06:18:22.373Z,100256.38
2023-05-21T06:21:25.693Z,100253.25
2023-05-21T06:24:30.754Z,100248.53
2023-05-21T06:27:33.715Z,100251.34
2023-05-21T06:30:38.462Z,100251.31
2023-05-21T06:33:41.427Z,100255.88
2023-05-21T06:36:44.319Z,100245.31
2023-05-21T06:39:47.927Z,100254.44
2023-05-21T06:42:50.936Z,100254.25
2023-05-21T06:46:13.741Z,100244.56
2023-05-21T06:49:16.752Z,100249.72
2023-05-21T06:52:19.791Z,100250.00
2023-05-21T06:55:23.093Z,100228.59
2023-05-21T06:58:38.283Z,100218.88
2023-05-21T07:01:42.758Z,100212.56
2023-05-21T07:04:45.977Z,100211.31
2023-05-21T07:07:48.755Z,100217.06
2023-05-21T07:10:51.596Z,100207.22
2023-05-21T07:13:55.752Z,100206.50
2023-05-21T07:16:59.183Z,100201.09
2023-05-21T07:20:02.049Z,100207.41
2023-05-21T07:23:05.333Z,100210.00
2023-05-21T07:26:10.077Z,100215.13
2023-05-21T07:29:12.899Z,100209.00
2023-05-21T07:32:16.708Z,100212.19
2023-05-21T07:35:20.467Z,100208.75
2023-05-21T07:38:23.351Z,100209.69
2023-05-21T07:41:26.399Z,100207.66
2023-05-21T07:44:29.623Z,100203.97
2023-05-21T07:47:32.523Z,100198.88
2023-05-21T07:50:37.824Z,100199.72
2023-05-21T07:53:40.670Z,100210.34
2023-05-21T07:56:46.932Z,100203.31
2023-05-21T08:00:08.491Z,100202.06
2023-05-21T08:03:18.638Z,100203.47
2023-05-21T08:06:24.880Z,100203.53
2023-05-21T08:09:27.701Z,100201.75
2023-05-21T08:12:30.658Z,100193.44
2023-05-21T08:15:33.529Z,100193.25
2023-05-21T08:18:36.439Z,100193.06
2023-05-21T08:21:39.401Z,100195.31
2023-05-21T08:24:42.202Z,100195.31
2023-05-21T08:27:45.150Z,100200.22
2023-05-21T08:30:47.932Z,100200.59
2023-05-21T08:33:53.845Z,100195.53
2023-05-21T08:37:04.753Z,100202.66
2023-05-21T08:40:26.077Z,100199.00
2023-05-21T08:43:29.464Z,100201.59
2023-05-21T08:46:37.378Z,100200.00
2023-05-21T08:49:40.350Z,100192.06
2023-05-21T08:52:43.164Z,100203.91
2023-05-21T08:55:46.788Z,100194.09
2023-05-21T08:58:49.606Z,100194.19
2023-05-21T09:01:57.771Z,100199.13
2023-05-21T09:05:09.394Z,100186.94
2023-05-21T09:08:19.403Z,100187.59
2023-05-21T09:11:37.908Z,100187.59
2023-05-21T09:14:42.941Z,100186.38
2023-05-21T09:17:54.431Z,100189.34
2023-05-21T09:21:30.238Z,100185.63
2023-05-21T09:24:51.744Z,100188.16
2023-05-21T09:27:56.645Z,100194.44
2023-05-21T09:31:05.689Z,100178.63
2023-05-21T09:34:09.256Z,100192.59
2023-05-21T09:37:23.738Z,100185.81
2023-05-21T09:40:29.931Z,100185.75
2023-05-21T09:43:33.157Z,100183.88
2023-05-21T09:46:43.010Z,100186.56
2023-05-21T09:49:45.786Z,100182.47
2023-05-21T09:52:53.200Z,100191.81
2023-05-21T09:55:58.078Z,100188.63
2023-05-21T09:59:04.489Z,100176.94
2023-05-21T10:02:37.937Z,100178.81
2023-05-21T10:05:41.583Z,100172.97
2023-05-21T10:08:46.224Z,100176.16
2023-05-21T10:11:53.372Z,100177.31
2023-05-21T10:15:01.531Z,100173.47
2023-05-21T10:18:04.978Z,100168.75
2023-05-21T10:21:09.064Z,100167.91
2023-05-21T10:24:13.334Z,100170.31
2023-05-21T10:27:18.023Z,100169.75
2023-05-21T10:30:22.033Z,100166.59
2023-05-21T10:33:27.135Z,100168.16
2023-05-21T10:36:34.011Z,100158.09
2023-05-21T10:39:39.697Z,100162.81
2023-05-21T10:42:42.372Z,100163.63
2023-05-21T10:46:06.276Z,100149.81
2023-05-21T10:49:27.131Z,100156.41
2023-05-21T10:52:52.584Z,100153.81
2023-05-21T10:56:23.174Z,100148.72
2023-05-21T10:59:31.662Z,100158.94
2023-05-21T11:02:34.908Z,100146.38
2023-05-21T11:05:56.604Z,100153.81
2023-05-21T11:09:15.851Z,100152.38
2023-05-21T11:12:20.077Z,100144.78
2023-05-21T11:15:23.115Z,100146.22
2023-05-21T11:18:38.091Z,100152.59
2023-05-21T11:21:40.960Z,100138.72
2023-05-21T11:24:44.285Z,100134.81
2023-05-21T11:27:47.913Z,100136.72
2023-05-21T11:31:22.740Z,100141.97
2023-05-21T11:34:35.084Z,100135.53
2023-05-21T11:37:40.900Z,100133.72
2023-05-21T11:40:56.589Z,100129.44
2023-05-21T11:44:02.237Z,100134.22
2023-05-21T11:47:05.998Z,100130.38
2023-05-21T11:50:13.636Z,100130.56
2023-05-21T11:53:16.412Z,100131.69
2023-05-21T11:56:20.533Z,100107.13
2023-05-21T11:59:23.324Z,100124.28
2023-05-21T12:02:31.338Z,100117.13
2023-05-21T12:05:50.045Z,100114.56
2023-05-21T12:08:53.058Z,100114.34
2023-05-21T12:11:55.871Z,100106.25
2023-05-21T12:14:59.233Z,100097.44
2023-05-21T12:18:02.481Z,100107.34
2023-05-21T12:21:05.356Z,100096.91
2023-05-21T12:24:08.116Z,100082.78
2023-05-21T12:27:13.680Z,100087.31
2023-05-21T12:30:16.836Z,100088.38
2023-05-21T12:33:19.700Z,100093.63
2023-05-21T12:36:34.511Z,100085.38
2023-05-21T12:39:41.837Z,100077.19
2023-05-21T12:42:44.753Z,100076.88
2023-05-21T12:45:47.693Z,100073.44
2023-05-21T12:48:54.029Z,100069.91
2023-05-21T12:51:57.169Z,100073.81
2023-05-21T12:55:00.294Z,100067.53
2023-05-21T12:58:05.646Z,100059.06
2023-05-21T13:01:12.333Z,100061.28
2023-05-21T13:04:15.524Z,100056.75
2023-05-21T13:07:18.534Z,100053.84
2023-05-21T13:10:22.114Z,100056.69
2023-05-21T13:13:24.888Z,100054.94
2023-05-21T13:16:27.738Z,100042.28
2023-05-21T13:19:30.771Z,100042.66
2023-05-21T13:22:33.616Z,100030.47
2023-05-21T13:25:36.489Z,100034.38
2023-05-21T13:28:41.880Z,100021.84
2023-05-21T13:31:45.680Z,100022.97
2023-05-21T13:34:48.444Z,100021.19
2023-05-21T13:37:51.300Z,100021.91
2023-05-21T13:40:54.017Z,100021.13
2023-05-21T13:43:56.949Z,100012.88
2023-05-21T13:46:59.781Z,100017.13
2023-05-21T13:50:02.740Z,100010.13
2023-05-21T13:53:05.605Z,100013.81
2023-05-21T13:56:08.308Z,100005.03
2023-05-21T13:59:11.053Z,100012.09
2023-05-21T14:02:13.969Z,100003.66
2023-05-21T14:05:16.748Z,100006.25
2023-05-21T14:08:20.923Z,100002.25
2023-05-21T14:11:23.641Z,99993.34
2023-05-21T14:14:26.479Z,99996.03
2023-05-21T14:17:29.272Z,99997.03
2023-05-21T14:20:32.017Z,99988.72
2023-05-21T14:23:34.813Z,99987.81
2023-05-21T14:26:41.024Z,99979.38
2023-05-21T14:29:43.775Z,99984.09
2023-05-21T14:32:46.613Z,99982.81
2023-05-21T14:35:49.458Z,99973.91
2023-05-21T14:38:52.203Z,99974.88
2023-05-21T14:41:54.964Z,99981.34
2023-05-21T14:48:03.257Z,99977.88
2023-05-21T14:51:06.038Z,99981.78
2023-05-21T14:54:08.850Z,99981.25
2023-05-21T14:57:11.632Z,99981.41
2023-05-21T15:00:15.019Z,99989.50
2023-05-21T15:03:17.890Z,99978.22
2023-05-21T15:06:20.961Z,99974.56
2023-05-21T15:09:23.763Z,99979.44
2023-05-21T15:12:27.507Z,99977.03
2023-05-21T15:15:30.250Z,99972.16
2023-05-21T15:18:33.278Z,99963.50
2023-05-21T15:21:36.256Z,99977.09
2023-05-21T15:24:38.976Z,99981.09
2023-05-21T15:27:41.850Z,99979.38
2023-05-21T15:30:44.601Z,99976.09
2023-05-21T15:33:47.412Z,99969.78
2023-05-21T15:36:50.142Z,99977.94
2023-05-21T15:39:54.125Z,99979.19
2023-05-21T15:42:57.183Z,99969.25
2023-05-21T15:45:59.960Z,99971.03
2023-05-21T15:49:02.775Z,99969.38
2023-05-21T15:52:05.984Z,99962.59
2023-05-21T15:55:09.306Z,99962.03
2023-05-21T15:58:12.161Z,99986.16
2023-05-21T16:01:15.136Z,99990.66
2023-05-21T16:04:20.362Z,99993.72
2023-05-21T16:07:23.775Z,99994.97
2023-05-21T16:10:26.496Z,99991.25
2023-05-21T16:13:29.249Z,99981.22
2023-05-21T16:16:32.320Z,99982.88
2023-05-21T16:19:35.153Z,99976.25
2023-05-21T16:22:38.064Z,99979.00
2023-05-21T16:25:41.176Z,99966.06
2023-05-21T16:28:43.923Z,99977.16
2023-05-21T16:31:47.621Z,99969.00
2023-05-21T16:34:50.523Z,99977.09
2023-05-21T16:37:53.363Z,99993.09
2023-05-21T16:40:56.270Z,99988.16
2023-05-21T16:43:59.021Z,99988.53
2023-05-21T16:47:02.164Z,100000.78
2023-05-21T16:50:05.365Z,99991.50
2023-05-21T16:53:09.930Z,99984.34
2023-05-21T16:56:12.850Z,99988.59
2023-05-21T16:59:15.589Z,99983.31
2023-05-21T17:02:18.392Z,99983.84
2023-05-21T17:05:21.697Z,99985.72
2023-05-21T17:08:24.449Z,99984.38
2023-05-21T17:17:35.396Z,99982.22
2023-05-21T17:20:38.543Z,99990.97
2023-05-21T17:23:42.969Z,99992.97
2023-05-21T17:26:45.854Z,99992.44
2023-05-21T17:29:48.619Z,100000.88
2023-05-21T17:32:51.398Z,100008.25
2023-05-21T17:35:56.520Z,100007.91
2023-05-21T17:38:59.425Z,100016.50
2023-05-21T17:42:02.343Z,100012.44
2023-05-21T17:45:05.515Z,100019.91
2023-05-21T17:48:08.467Z,100035.72
2023-05-21T17:51:14.451Z,100052.97
2023-05-21T17:54:17.258Z,100057.16
2023-05-21T17:57:20.420Z,100067.25
2023-05-21T18:00:23.193Z,100059.22
2023-05-21T18:03:26.125Z,100040.25
2023-05-21T18:06:29.466Z,100037.69
2023-05-21T18:09:34.642Z,100025.56
2023-05-21T18:12:37.397Z,100031.38
2023-05-21T18:15:40.465Z,100027.72
2023-05-21T18:18:43.754Z,100033.69
2023-05-21T18:21:48.568Z,100027.13
2023-05-21T18:24:51.647Z,100026.94
2023-05-21T18:27:54.534Z,100034.81
2023-05-21T18:31:00.905Z,100026.00
2023-05-21T18:34:03.638Z,100038.31
2023-05-21T18:37:06.942Z,100042.72
2023-05-21T18:40:10.858Z,100037.66
2023-05-21T18:43:14.393Z,100041.25
2023-05-21T18:46:17.277Z,100047.75
2023-05-21T18:49:21.443Z,100036.69
2023-05-21T18:52:24.255Z,100044.41
2023-05-21T18:55:27.121Z,100043.53
2023-05-21T18:58:30.172Z,100032.88
2023-05-21T19:01:33.041Z,100047.28
2023-05-21T19:04:35.910Z,100053.00
2023-05-21T19:07:38.789Z,100061.03
2023-05-21T19:10:41.732Z,100062.03
2023-05-21T19:13:44.737Z,100067.63
2023-05-21T19:16:47.782Z,100058.00
2023-05-21T19:19:55.853Z,100057.09
2023-05-21T19:22:58.752Z,100063.28
2023-05-21T19:26:01.694Z,100058.91
2023-05-21T19:29:04.477Z,100072.28
2023-05-21T19:32:07.392Z,100068.41
2023-05-21T19:35:11.148Z,100067.16
2023-05-21T19:38:15.410Z,100065.41
2023-05-21T19:41:19.227Z,100072.16
2023-05-21T19:44:21.991Z,100064.97
2023-05-21T19:47:24.870Z,100065.31
2023-05-21T19:50:28.912Z,100064.59
2023-05-21T19:53:31.711Z,100063.81
2023-05-21T19:56:34.501Z,100060.09
2023-05-21T19:59:37.265Z,100065.72
2023-05-21T20:02:41.169Z,100077.88
2023-05-21T20:05:44.042Z,100070.09
2023-05-21T20:08:47.201Z,100076.41
2023-05-21T20:11:49.998Z,100081.69
2023-05-21T20:14:54.441Z,100081.50
2023-05-21T20:17:59.403Z,100085.59
2023-05-21T20:21:06.208Z,100086.34
2023-05-21T20:24:08.974Z,100089.44
2023-05-21T20:27:11.815Z,100099.41
2023-05-21T20:30:14.753Z,100096.38
2023-05-21T20:33:17.497Z,100095.75
2023-05-21T20:36:21.422Z,100118.44
2023-05-21T20:39:27.505Z,100128.09
2023-05-21T20:42:34.513Z,100122.75
2023-05-21T20:45:39.578Z,100128.66
2023-05-21T20:48:42.596Z,100137.69
2023-05-21T20:51:45.908Z,100140.84
2023-05-21T20:54:49.073Z,100141.06
2023-05-21T20:57:51.830Z,100134.06
2023-05-21T21:00:55.425Z,100137.50
2023-05-21T21:03:58.374Z,100144.56
2023-05-21T21:07:02.048Z,100158.00
2023-05-21T21:10:05.701Z,100148.69
2023-05-21T21:13:09.760Z,100152.31
2023-05-21T21:16:12.532Z,100154.72
2023-05-21T21:19:15.313Z,100155.28
2023-05-21T21:22:18.633Z,100161.88
2023-05-21T21:25:21.683Z,100157.78
2023-05-21T21:28:24.441Z,100165.44
2023-05-21T21:31:27.385Z,100156.09
2023-05-21T21:34:30.095Z,100155.06
2023-05-21T21:37:32.835Z,100156.72
2023-05-21T21:40:35.729Z,100144.28
2023-05-21T21:43:38.526Z,100146.81
2023-05-21T21:46:41.459Z,100146.97
2023-05-21T21:49:44.255Z,100149.19
2023-05-21T21:52:49.013Z,100153.22
2023-05-21T21:55:51.842Z,100138.34
2023-05-21T21:58:54.628Z,100137.50
2023-05-21T22:01:58.474Z,100138.44
2023-05-21T22:05:01.357Z,100130.78
2023-05-21T22:08:04.514Z,100128.34
2023-05-21T22:11:07.325Z,100115.28
2023-05-21T22:14:11.781Z,100110.78
2023-05-21T22:17:18.136Z,100103.50
2023-05-21T22:20:26.143Z,100092.50
2023-05-21T22:23:29.014Z,100083.88
2023-05-21T22:26:31.777Z,100084.75
2023-05-21T22:29:34.502Z,100066.03
2023-05-21T22:32:37.767Z,100061.56
2023-05-21T22:35:40.641Z,100063.38
2023-05-21T22:38:43.943Z,100064.31
2023-05-21T22:41:46.786Z,100069.16
2023-05-21T22:44:49.634Z,100049.00
2023-05-21T22:47:52.410Z,100052.09
2023-05-21T22:50:55.228Z,100041.59
2023-05-21T22:53:58.001Z,100031.59
2023-05-21T22:57:01.758Z,100025.44
2023-05-21T23:00:07.073Z,100010.41
2023-05-21T23:03:09.978Z,100004.91
2023-05-21T23:06:12.702Z,100012.28
2023-05-21T23:09:15.438Z,100014.97
2023-05-21T23:12:18.256Z,100016.84
2023-05-21T23:15:21.740Z,100020.81
2023-05-21T23:18:26.690Z,100031.09
2023-05-21T23:21:29.510Z,100036.72
2023-05-21T23:24:35.200Z,100037.59
2023-05-21T23:27:37.943Z,100035.94
2023-05-21T23:30:40.936Z,100045.56
2023-05-21T23:33:44.190Z,100052.03
2023-05-21T23:36:46.912Z,100053.63
2023-05-21T23:39:51.183Z,100053.75
2023-05-21T23:42:53.916Z,100056.22
2023-05-21T23:45:56.653Z,100065.75
2023-05-21T23:48:59.481Z,100074.34
2023-05-21T23:52:02.253Z,100066.47
2023-05-21T23:55:05.314Z,100074.19
2023-05-21T23:58:08.058Z,100079.81
